Time,TemperatureF,DewpointF,PressureIn,WindDirection,WindDirectionDegrees,WindSpeedMPH,WindSpeedGustMPH,Humidity,HourlyPrecipIn,Conditions,Clouds,dailyrainin,SoftwareType,DateUTC
2013-03-24 00:02:00,27.7,16.0,21.92,SE,135,2.0,0.0,61,0.00,,,0.00,meteohub,2013-03-24 05:02:00,
2013-03-24 00:07:00,27.9,16.2,21.92,SE,135,2.0,2.0,61,0.00,,,0.00,meteohub,2013-03-24 05:07:00,
2013-03-24 00:12:00,28.0,16.3,21.93,SE,135,2.0,2.0,61,0.00,,,0.00,meteohub,2013-03-24 05:12:00,
2013-03-24 00:17:00,28.2,16.2,21.93,SE,135,1.0,3.0,60,0.00,,,0.00,meteohub,2013-03-24 05:17:00,
2013-03-24 00:22:00,28.2,16.2,21.92,SE,135,1.0,3.0,60,0.00,,,0.00,meteohub,2013-03-24 05:22:00,
2013-03-24 00:27:00,28.4,17.8,21.92,SW,225,1.0,2.0,64,0.00,,,0.00,meteohub,2013-03-24 05:27:00,
2013-03-24 00:32:00,28.4,17.8,21.92,SW,225,1.0,2.0,64,0.00,,,0.00,meteohub,2013-03-24 05:32:00,
2013-03-24 00:37:00,28.2,16.2,21.92,SW,225,0.0,1.0,60,0.00,,,0.00,meteohub,2013-03-24 05:37:00,
2013-03-24 00:42:00,28.2,16.2,21.92,SW,225,0.0,1.0,60,0.00,,,0.00,meteohub,2013-03-24 05:42:00,
2013-03-24 00:47:00,28.2,16.2,21.92,SW,225,0.0,1.0,60,0.00,,,0.00,meteohub,2013-03-24 05:47:00,
2013-03-24 00:52:00,28.2,16.2,21.92,SW,225,0.0,0.0,60,0.00,,,0.00,meteohub,2013-03-24 05:52:00,
2013-03-24 00:57:00,28.2,16.2,21.92,SW,225,0.0,0.0,60,0.00,,,0.00,meteohub,2013-03-24 05:57:00,
2013-03-24 01:02:00,28.2,16.2,21.92,SW,225,0.0,0.0,60,0.00,,,0.00,meteohub,2013-03-24 06:02:00,
2013-03-24 01:07:00,28.2,16.2,21.93,SW,225,0.0,0.0,60,0.00,,,0.00,meteohub,2013-03-24 06:07:00,
2013-03-24 01:12:00,28.0,16.0,21.93,SE,135,0.0,0.0,60,0.00,,,0.00,meteohub,2013-03-24 06:12:00,
2013-03-24 01:17:00,28.2,16.2,21.93,SE,135,2.0,2.0,60,0.00,,,0.00,meteohub,2013-03-24 06:17:00,
2013-03-24 01:22:00,28.4,17.8,21.93,SE,135,0.0,3.0,64,0.00,,,0.00,meteohub,2013-03-24 06:22:00,
2013-03-24 01:27:00,28.4,17.8,21.93,SW,225,0.0,3.0,64,0.00,,,0.00,meteohub,2013-03-24 06:27:00,
2013-03-24 01:32:00,28.2,16.2,21.93,SW,225,0.0,3.0,60,0.00,,,0.00,meteohub,2013-03-24 06:32:00,
2013-03-24 01:37:00,28.2,16.2,21.94,SW,225,0.0,1.0,60,0.00,,,0.00,meteohub,2013-03-24 06:37:00,
2013-03-24 01:42:00,28.2,16.2,21.93,SW,225,0.0,1.0,60,0.00,,,0.00,meteohub,2013-03-24 06:42:00,
2013-03-24 01:47:00,28.0,16.3,21.93,SE,135,2.0,0.0,61,0.00,,,0.00,meteohub,2013-03-24 06:47:00,
2013-03-24 01:52:00,28.2,16.5,21.93,SE,135,2.0,2.0,61,0.00,,,0.00,meteohub,2013-03-24 06:52:00,
2013-03-24 01:57:00,28.2,16.5,21.94,SE,135,2.0,3.0,61,0.00,,,0.00,meteohub,2013-03-24 06:57:00,
2013-03-24 02:02:00,28.2,16.9,21.94,SE,135,4.0,4.0,62,0.00,,,0.00,meteohub,2013-03-24 07:02:00,
2013-03-24 02:07:00,28.4,18.5,21.94,SE,135,5.0,5.0,66,0.00,,,0.00,meteohub,2013-03-24 07:07:00,
2013-03-24 02:12:00,28.4,18.1,21.94,SE,135,4.0,5.0,65,0.00,,,0.00,meteohub,2013-03-24 07:12:00,
2013-03-24 02:17:00,28.4,18.1,21.94,SE,135,3.0,5.0,65,0.00,,,0.00,meteohub,2013-03-24 07:17:00,
2013-03-24 02:22:00,28.4,18.1,21.94,SE,135,5.0,5.0,65,0.00,,,0.00,meteohub,2013-03-24 07:22:00,
2013-03-24 02:27:00,28.4,18.1,21.94,SE,135,3.0,5.0,65,0.00,,,0.00,meteohub,2013-03-24 07:27:00,
2013-03-24 02:32:00,28.6,18.3,21.94,SSE,158,3.0,5.0,65,0.00,,,0.00,meteohub,2013-03-24 07:32:00,
2013-03-24 02:37:00,28.6,18.3,21.95,SSE,158,2.0,5.0,65,0.00,,,0.00,meteohub,2013-03-24 07:37:00,
2013-03-24 02:42:00,28.6,18.3,21.95,East,90,3.0,4.0,65,0.00,,,0.00,meteohub,2013-03-24 07:42:00,
2013-03-24 02:47:00,28.6,18.3,21.96,NW,315,1.0,4.0,65,0.00,,,0.00,meteohub,2013-03-24 07:47:00,
2013-03-24 02:52:00,28.6,18.3,21.96,SE,135,4.0,4.0,65,0.00,,,0.00,meteohub,2013-03-24 07:52:00,
2013-03-24 02:57:00,28.6,18.3,21.96,South,180,2.0,4.0,65,0.00,,,0.00,meteohub,2013-03-24 07:57:00,
2013-03-24 03:02:00,28.6,18.3,21.96,SE,135,2.0,4.0,65,0.00,,,0.00,meteohub,2013-03-24 08:02:00,
2013-03-24 03:07:00,28.6,18.3,21.96,SE,135,3.0,4.0,65,0.00,,,0.00,meteohub,2013-03-24 08:07:00,
2013-03-24 03:12:00,28.6,18.3,21.95,South,180,2.0,3.0,65,0.00,,,0.00,meteohub,2013-03-24 08:12:00,
2013-03-24 03:17:00,28.6,18.0,21.95,South,180,2.0,4.0,64,0.00,,,0.00,meteohub,2013-03-24 08:17:00,
2013-03-24 03:22:00,28.6,18.0,21.96,SE,135,2.0,4.0,64,0.00,,,0.00,meteohub,2013-03-24 08:22:00,
2013-03-24 03:27:00,28.6,18.0,21.96,SE,135,2.0,3.0,64,0.00,,,0.00,meteohub,2013-03-24 08:27:00,
2013-03-24 03:32:00,28.6,18.0,21.96,SE,135,2.0,2.0,64,0.00,,,0.00,meteohub,2013-03-24 08:32:00,
2013-03-24 03:37:00,28.8,18.1,21.96,SE,135,4.0,4.0,64,0.00,,,0.00,meteohub,2013-03-24 08:37:00,
2013-03-24 03:42:00,28.8,18.1,21.97,East,90,5.0,5.0,64,0.00,,,0.00,meteohub,2013-03-24 08:42:00,
2013-03-24 03:47:00,28.9,18.3,21.97,SE,135,5.0,5.0,64,0.00,,,0.00,meteohub,2013-03-24 08:47:00,
2013-03-24 03:52:00,28.8,18.1,21.97,SE,135,6.0,7.0,64,0.00,,,0.00,meteohub,2013-03-24 08:52:00,
2013-03-24 03:58:00,28.8,18.5,21.97,SE,135,4.0,7.0,65,0.00,,,0.00,meteohub,2013-03-24 08:58:00,
2013-03-24 04:03:00,28.8,18.5,21.98,SE,135,8.0,8.0,65,0.00,,,0.00,meteohub,2013-03-24 09:03:00,
2013-03-24 04:08:00,28.8,18.1,21.98,SE,135,7.0,8.0,64,0.00,,,0.00,meteohub,2013-03-24 09:08:00,
2013-03-24 04:13:00,28.8,18.1,21.99,SE,135,5.0,8.0,64,0.00,,,0.00,meteohub,2013-03-24 09:13:00,
2013-03-24 04:18:00,28.8,18.1,21.99,ESE,113,4.0,8.0,64,0.00,,,0.00,meteohub,2013-03-24 09:18:00,
2013-03-24 04:23:00,28.8,18.1,21.99,SE,135,7.0,8.0,64,0.00,,,0.00,meteohub,2013-03-24 09:23:00,
2013-03-24 04:28:00,28.8,18.1,21.99,SE,135,5.0,8.0,64,0.00,,,0.00,meteohub,2013-03-24 09:28:00,
2013-03-24 04:33:00,28.8,17.8,21.99,SE,135,5.0,7.0,63,0.00,,,0.00,meteohub,2013-03-24 09:33:00,
2013-03-24 04:38:00,28.9,18.0,21.99,SE,135,5.0,7.0,63,0.00,,,0.00,meteohub,2013-03-24 09:38:00,
2013-03-24 04:43:00,28.9,18.0,21.99,East,90,7.0,7.0,63,0.00,,,0.00,meteohub,2013-03-24 09:43:00,
2013-03-24 04:48:00,28.9,18.0,21.99,SE,135,6.0,7.0,63,0.00,,,0.00,meteohub,2013-03-24 09:48:00,
2013-03-24 04:53:00,28.9,17.6,21.99,SE,135,6.0,7.0,62,0.00,,,0.00,meteohub,2013-03-24 09:53:00,
2013-03-24 04:58:00,28.9,17.6,21.99,SE,135,5.0,8.0,62,0.00,,,0.00,meteohub,2013-03-24 09:58:00,
2013-03-24 05:03:00,28.9,17.6,21.99,SE,135,5.0,8.0,62,0.00,,,0.00,meteohub,2013-03-24 10:03:00,
2013-03-24 05:08:00,29.1,17.8,21.99,SE,135,4.0,8.0,62,0.00,,,0.00,meteohub,2013-03-24 10:08:00,
2013-03-24 05:13:00,29.1,17.8,21.99,SE,135,4.0,7.0,62,0.00,,,0.00,meteohub,2013-03-24 10:13:00,
2013-03-24 05:18:00,29.1,17.8,21.99,ESE,113,6.0,6.0,62,0.00,,,0.00,meteohub,2013-03-24 10:18:00,
2013-03-24 05:23:00,29.1,17.8,21.99,SE,135,4.0,6.0,62,0.00,,,0.00,meteohub,2013-03-24 10:23:00,
2013-03-24 05:28:00,29.1,17.8,21.99,SE,135,4.0,6.0,62,0.00,,,0.00,meteohub,2013-03-24 10:28:00,
2013-03-24 05:33:00,29.1,17.8,21.99,SE,135,4.0,7.0,62,0.00,,,0.00,meteohub,2013-03-24 10:33:00,
2013-03-24 05:38:00,29.1,17.8,21.99,SE,135,7.0,7.0,62,0.00,,,0.00,meteohub,2013-03-24 10:38:00,
2013-03-24 05:43:00,29.1,17.8,21.99,SE,135,6.0,7.0,62,0.00,,,0.00,meteohub,2013-03-24 10:43:00,
2013-03-24 05:48:00,29.1,17.8,21.99,SE,135,5.0,9.0,62,0.00,,,0.00,meteohub,2013-03-24 10:48:00,
2013-03-24 05:53:00,29.1,18.1,21.99,SE,135,8.0,9.0,63,0.00,,,0.00,meteohub,2013-03-24 10:53:00,
2013-03-24 05:58:00,29.1,17.8,21.99,ESE,113,4.0,9.0,62,0.00,,,0.00,meteohub,2013-03-24 10:58:00,
2013-03-24 06:03:00,29.1,18.1,21.99,SE,135,7.0,8.0,63,0.00,,,0.00,meteohub,2013-03-24 11:03:00,
2013-03-24 06:08:00,29.1,18.1,21.99,SE,135,6.0,8.0,63,0.00,,,0.00,meteohub,2013-03-24 11:08:00,
2013-03-24 06:13:00,29.1,18.1,22.00,SE,135,5.0,8.0,63,0.00,,,0.00,meteohub,2013-03-24 11:13:00,
2013-03-24 06:18:00,29.1,18.1,22.00,SE,135,5.0,8.0,63,0.00,,,0.00,meteohub,2013-03-24 11:18:00,
2013-03-24 06:23:00,28.9,18.0,22.00,SE,135,5.0,8.0,63,0.00,,,0.00,meteohub,2013-03-24 11:23:00,
2013-03-24 06:28:00,28.9,18.0,22.00,South,180,8.0,8.0,63,0.00,,,0.00,meteohub,2013-03-24 11:28:00,
2013-03-24 06:33:00,28.9,18.0,22.01,East,90,6.0,9.0,63,0.00,,,0.00,meteohub,2013-03-24 11:33:00,
2013-03-24 06:38:00,28.9,18.0,22.01,SE,135,5.0,11.0,63,0.00,,,0.00,meteohub,2013-03-24 11:38:00,
2013-03-24 06:43:00,28.9,18.0,22.01,SE,135,7.0,11.0,63,0.00,,,0.00,meteohub,2013-03-24 11:43:00,
2013-03-24 06:48:00,28.9,18.3,22.01,East,90,8.0,8.0,64,0.00,,,0.00,meteohub,2013-03-24 11:48:00,
2013-03-24 06:53:00,28.8,18.1,22.01,SE,135,4.0,7.0,64,0.00,,,0.00,meteohub,2013-03-24 11:53:00,
2013-03-24 06:58:00,28.8,18.1,22.01,SE,135,4.0,8.0,64,0.00,,,0.00,meteohub,2013-03-24 11:58:00,
2013-03-24 07:03:00,28.8,18.1,22.01,SE,135,4.0,8.0,64,0.00,,,0.00,meteohub,2013-03-24 12:03:00,
2013-03-24 07:08:00,28.8,18.5,22.01,SE,135,6.0,8.0,65,0.00,,,0.00,meteohub,2013-03-24 12:08:00,
2013-03-24 07:13:00,28.9,18.7,22.00,SE,135,6.0,8.0,65,0.00,,,0.00,meteohub,2013-03-24 12:13:00,
2013-03-24 07:18:00,28.9,18.7,22.01,SE,135,5.0,10.0,65,0.00,,,0.00,meteohub,2013-03-24 12:18:00,
2013-03-24 07:23:00,28.9,18.7,22.01,SE,135,4.0,10.0,65,0.00,,,0.00,meteohub,2013-03-24 12:23:00,
2013-03-24 07:28:00,28.9,19.0,22.01,SE,135,4.0,8.0,66,0.00,,,0.00,meteohub,2013-03-24 12:28:00,
2013-03-24 07:33:00,28.9,19.0,22.00,SE,135,5.0,8.0,66,0.00,,,0.00,meteohub,2013-03-24 12:33:00,
2013-03-24 07:38:00,28.9,19.4,22.01,South,180,8.0,8.0,67,0.00,,,0.00,meteohub,2013-03-24 12:38:00,
2013-03-24 07:43:00,28.9,19.4,22.01,SE,135,6.0,8.0,67,0.00,,,0.00,meteohub,2013-03-24 12:43:00,
2013-03-24 07:48:00,28.9,19.4,22.00,SE,135,8.0,8.0,67,0.00,,,0.00,meteohub,2013-03-24 12:48:00,
2013-03-24 07:53:00,28.9,19.4,22.01,SE,135,4.0,8.0,67,0.00,,,0.00,meteohub,2013-03-24 12:53:00,
2013-03-24 07:58:00,28.9,19.4,22.01,SE,135,8.0,11.0,67,0.00,,,0.00,meteohub,2013-03-24 12:58:00,
2013-03-24 08:03:00,28.9,19.4,22.01,East,90,7.0,11.0,67,0.00,,,0.00,meteohub,2013-03-24 13:03:00,
2013-03-24 08:08:00,28.9,19.4,22.01,SSE,158,6.0,11.0,67,0.00,,,0.00,meteohub,2013-03-24 13:08:00,
2013-03-24 08:13:00,28.9,19.4,22.01,SE,135,12.0,15.0,67,0.00,,,0.00,meteohub,2013-03-24 13:13:00,
2013-03-24 08:18:00,28.9,19.4,22.01,SE,135,13.0,15.0,67,0.00,,,0.00,meteohub,2013-03-24 13:18:00,
2013-03-24 08:23:00,28.9,19.4,22.01,SE,135,7.0,15.0,67,0.00,,,0.00,meteohub,2013-03-24 13:23:00,
2013-03-24 08:28:00,28.9,19.4,22.01,SE,135,7.0,16.0,67,0.00,,,0.00,meteohub,2013-03-24 13:28:00,
2013-03-24 08:33:00,28.9,19.4,22.01,SE,135,8.0,16.0,67,0.00,,,0.00,meteohub,2013-03-24 13:33:00,
2013-03-24 08:38:00,28.9,19.4,22.01,SE,135,11.0,15.0,67,0.00,,,0.00,meteohub,2013-03-24 13:38:00,
2013-03-24 08:43:00,28.9,19.4,22.01,SE,135,7.0,15.0,67,0.00,,,0.00,meteohub,2013-03-24 13:43:00,
2013-03-24 08:51:00,28.9,19.0,22.02,South,180,9.0,15.0,66,0.00,,,0.00,meteohub,2013-03-24 13:51:00,
2013-03-24 08:56:00,29.1,19.2,22.02,SE,135,7.0,15.0,66,0.00,,,0.00,meteohub,2013-03-24 13:56:00,
2013-03-24 09:01:00,29.1,19.2,22.02,East,90,14.0,15.0,66,0.00,,,0.00,meteohub,2013-03-24 14:01:00,
2013-03-24 09:06:00,29.1,19.2,22.01,East,90,14.0,14.0,66,0.00,,,0.00,meteohub,2013-03-24 14:06:00,
2013-03-24 09:11:00,29.1,19.2,22.02,SE,135,7.0,17.0,66,0.00,,,0.00,meteohub,2013-03-24 14:11:00,
2013-03-24 09:16:00,29.1,19.2,22.02,SE,135,11.0,17.0,66,0.00,,,0.00,meteohub,2013-03-24 14:16:00,
2013-03-24 09:21:00,28.8,19.9,22.02,SE,135,9.0,17.0,69,0.00,,,0.00,meteohub,2013-03-24 14:21:00,
2013-03-24 09:26:00,28.6,21.0,22.02,SE,135,8.0,16.0,73,0.00,,,0.00,meteohub,2013-03-24 14:26:00,
2013-03-24 09:31:00,28.6,21.7,22.02,South,180,6.0,16.0,75,0.00,,,0.00,meteohub,2013-03-24 14:31:00,
2013-03-24 09:37:00,28.4,21.7,22.02,SE,135,11.0,12.0,76,0.00,,,0.00,meteohub,2013-03-24 14:37:00,
2013-03-24 09:42:00,28.2,20.7,22.02,SE,135,8.0,12.0,73,0.00,,,0.00,meteohub,2013-03-24 14:42:00,
2013-03-24 09:47:00,28.0,20.8,22.02,SE,135,10.0,13.0,74,0.00,,,0.00,meteohub,2013-03-24 14:47:00,
2013-03-24 09:52:00,27.9,21.0,22.03,SE,135,6.0,14.0,75,0.00,,,0.00,meteohub,2013-03-24 14:52:00,
2013-03-24 09:57:00,28.0,21.7,22.03,SE,135,11.0,17.0,77,0.00,,,0.00,meteohub,2013-03-24 14:57:00,
2013-03-24 10:02:00,28.0,22.1,22.03,SE,135,7.0,17.0,78,0.00,,,0.00,meteohub,2013-03-24 15:02:00,
2013-03-24 10:07:00,28.0,22.1,22.03,SE,135,12.0,14.0,78,0.00,,,0.00,meteohub,2013-03-24 15:07:00,
2013-03-24 10:12:00,27.9,21.9,22.03,SE,135,8.0,15.0,78,0.00,,,0.00,meteohub,2013-03-24 15:12:00,
2013-03-24 10:17:00,27.9,21.9,22.03,South,180,6.0,15.0,78,0.00,,,0.00,meteohub,2013-03-24 15:17:00,
2013-03-24 10:22:00,27.9,21.9,22.03,SE,135,8.0,15.0,78,0.00,,,0.00,meteohub,2013-03-24 15:22:00,
2013-03-24 10:27:00,28.2,22.6,22.03,SE,135,7.0,13.0,79,0.00,,,0.00,meteohub,2013-03-24 15:27:00,
2013-03-24 10:36:00,27.5,21.6,22.04,SE,135,9.0,14.0,78,0.00,,,0.00,meteohub,2013-03-24 15:36:00,
2013-03-24 10:41:00,27.9,21.9,22.04,SE,135,11.0,15.0,78,0.00,,,0.00,meteohub,2013-03-24 15:41:00,
2013-03-24 10:46:00,27.9,21.9,22.04,ENE,68,9.0,15.0,78,0.00,,,0.00,meteohub,2013-03-24 15:46:00,
2013-03-24 10:51:00,28.2,22.3,22.04,SE,135,8.0,15.0,78,0.00,,,0.00,meteohub,2013-03-24 15:51:00,
2013-03-24 10:56:00,28.2,22.3,22.04,SE,135,11.0,15.0,78,0.00,,,0.00,meteohub,2013-03-24 15:56:00,
2013-03-24 11:01:00,28.4,23.5,22.04,SE,135,6.0,15.0,82,0.00,,,0.00,meteohub,2013-03-24 16:01:00,
2013-03-24 11:06:00,28.4,23.5,22.04,SE,135,6.0,15.0,82,0.00,,,0.00,meteohub,2013-03-24 16:06:00,
2013-03-24 11:11:00,28.4,23.5,22.04,ESE,113,15.0,15.0,82,0.00,,,0.00,meteohub,2013-03-24 16:11:00,
2013-03-24 11:16:00,28.4,23.5,22.04,East,90,12.0,17.0,82,0.00,,,0.00,meteohub,2013-03-24 16:16:00,
2013-03-24 11:21:00,28.4,23.5,22.04,SE,135,7.0,17.0,82,0.00,,,0.00,meteohub,2013-03-24 16:21:00,
2013-03-24 11:27:00,28.4,23.5,22.04,SE,135,9.0,17.0,82,0.00,,,0.00,meteohub,2013-03-24 16:27:00,
2013-03-24 11:32:00,28.4,23.5,22.05,SE,135,14.0,16.0,82,0.00,,,0.00,meteohub,2013-03-24 16:32:00,
2013-03-24 11:37:00,28.6,23.7,22.04,SE,135,14.0,16.0,82,0.00,,,0.00,meteohub,2013-03-24 16:37:00,
2013-03-24 11:42:00,28.0,22.1,22.05,SE,135,12.0,14.0,78,0.00,,,0.00,meteohub,2013-03-24 16:42:00,
2013-03-24 11:47:00,28.4,23.5,22.05,SE,135,15.0,17.0,82,0.00,,,0.00,meteohub,2013-03-24 16:47:00,
2013-03-24 11:52:00,28.6,23.7,22.05,SE,135,15.0,17.0,82,0.00,,,0.00,meteohub,2013-03-24 16:52:00,
2013-03-24 11:57:00,28.6,23.7,22.06,SE,135,10.0,17.0,82,0.00,,,0.00,meteohub,2013-03-24 16:57:00,
2013-03-24 12:02:00,28.6,23.7,22.05,SE,135,8.0,15.0,82,0.00,,,0.00,meteohub,2013-03-24 17:02:00,
2013-03-24 12:07:00,28.9,24.1,22.06,SE,135,7.0,15.0,82,0.00,,,0.00,meteohub,2013-03-24 17:07:00,
2013-03-24 12:12:00,29.3,24.4,22.06,SE,135,5.0,13.0,82,0.00,,,0.00,meteohub,2013-03-24 17:12:00,
2013-03-24 12:17:00,29.7,24.6,22.06,East,90,8.0,13.0,81,0.00,,,0.00,meteohub,2013-03-24 17:17:00,
2013-03-24 12:22:00,29.5,23.7,22.06,South,180,9.0,13.0,79,0.00,,,0.00,meteohub,2013-03-24 17:22:00,
2013-03-24 12:27:00,29.7,23.4,22.06,SE,135,17.0,17.0,77,0.00,,,0.00,meteohub,2013-03-24 17:27:00,
2013-03-24 12:32:00,29.5,22.5,22.06,SE,135,16.0,18.0,75,0.00,,,0.00,meteohub,2013-03-24 17:32:00,
2013-03-24 12:37:00,29.7,22.5,22.06,ESE,113,17.0,18.0,74,0.00,,,0.00,meteohub,2013-03-24 17:37:00,
2013-03-24 12:42:00,30.4,22.5,22.07,SE,135,12.0,21.0,72,0.00,,,0.00,meteohub,2013-03-24 17:42:00,
2013-03-24 12:47:00,31.5,23.5,22.07,SE,135,16.0,21.0,72,0.00,,,0.00,meteohub,2013-03-24 17:47:00,
2013-03-24 12:52:00,31.1,23.2,22.07,SE,135,9.0,17.0,72,0.00,,,0.00,meteohub,2013-03-24 17:52:00,
2013-03-24 12:57:00,30.7,22.8,22.07,ESE,113,10.0,17.0,72,0.00,,,0.00,meteohub,2013-03-24 17:57:00,
2013-03-24 13:02:00,30.7,23.4,22.07,SE,135,16.0,17.0,74,0.00,,,0.00,meteohub,2013-03-24 18:02:00,
2013-03-24 13:07:00,30.7,23.4,22.08,SE,135,16.0,16.0,74,0.00,,,0.00,meteohub,2013-03-24 18:07:00,
2013-03-24 13:12:00,29.8,23.2,22.08,SE,135,17.0,17.0,76,0.00,,,0.00,meteohub,2013-03-24 18:12:00,
2013-03-24 13:17:00,29.3,23.0,22.08,East,90,14.0,18.0,77,0.00,,,0.00,meteohub,2013-03-24 18:17:00,
2013-03-24 13:22:00,29.7,23.9,22.08,SE,135,9.0,18.0,79,0.00,,,0.00,meteohub,2013-03-24 18:22:00,
2013-03-24 13:27:00,29.3,23.9,22.08,East,90,13.0,18.0,80,0.00,,,0.00,meteohub,2013-03-24 18:27:00,
2013-03-24 13:32:00,29.1,24.3,22.08,East,90,15.0,15.0,82,0.00,,,0.00,meteohub,2013-03-24 18:32:00,
2013-03-24 13:37:00,28.9,24.1,22.09,SE,135,15.0,16.0,82,0.00,,,0.00,meteohub,2013-03-24 18:37:00,
2013-03-24 13:42:00,29.3,24.4,22.09,East,90,14.0,17.0,82,0.00,,,0.00,meteohub,2013-03-24 18:42:00,
2013-03-24 13:47:00,29.7,25.2,22.09,East,90,11.0,17.0,83,0.00,,,0.00,meteohub,2013-03-24 18:47:00,
2013-03-24 13:52:00,29.7,25.2,22.09,East,90,9.0,15.0,83,0.00,,,0.00,meteohub,2013-03-24 18:52:00,
2013-03-24 13:57:00,30.4,25.5,22.09,SE,135,11.0,17.0,82,0.00,,,0.00,meteohub,2013-03-24 18:57:00,
2013-03-24 14:02:00,30.6,25.7,22.09,East,90,8.0,17.0,82,0.00,,,0.00,meteohub,2013-03-24 19:02:00,
2013-03-24 14:07:00,31.1,26.2,22.09,SE,135,11.0,17.0,82,0.00,,,0.00,meteohub,2013-03-24 19:07:00,
2013-03-24 14:12:00,31.1,26.2,22.09,SE,135,8.0,13.0,82,0.00,,,0.00,meteohub,2013-03-24 19:12:00,
2013-03-24 14:17:00,31.6,26.4,22.10,ESE,113,11.0,13.0,81,0.00,,,0.00,meteohub,2013-03-24 19:17:00,
2013-03-24 14:22:00,32.2,26.8,22.11,East,90,8.0,13.0,80,0.00,,,0.00,meteohub,2013-03-24 19:22:00,
2013-03-24 14:27:00,32.2,25.7,22.11,SE,135,15.0,15.0,77,0.00,,,0.00,meteohub,2013-03-24 19:27:00,
2013-03-24 14:32:00,32.4,25.0,22.12,SE,135,11.0,15.0,74,0.00,,,0.00,meteohub,2013-03-24 19:32:00,
2013-03-24 14:37:00,32.9,24.6,22.12,SE,135,11.0,17.0,71,0.00,,,0.00,meteohub,2013-03-24 19:37:00,
2013-03-24 14:42:00,32.9,21.7,22.13,SE,135,17.0,17.0,63,0.00,,,0.00,meteohub,2013-03-24 19:42:00,
2013-03-24 14:47:00,33.1,20.7,22.13,East,90,17.0,18.0,60,0.00,,,0.00,meteohub,2013-03-24 19:47:00,
2013-03-24 14:52:00,33.1,20.3,22.13,East,90,21.0,21.0,59,0.00,,,0.00,meteohub,2013-03-24 19:52:00,
2013-03-24 14:57:00,33.4,19.8,22.13,SE,135,10.0,21.0,57,0.00,,,0.00,meteohub,2013-03-24 19:57:00,
2013-03-24 15:02:00,33.6,19.9,22.13,SE,135,8.0,21.0,57,0.00,,,0.00,meteohub,2013-03-24 20:02:00,
2013-03-24 15:07:00,33.6,19.2,22.14,ESE,113,15.0,21.0,55,0.00,,,0.00,meteohub,2013-03-24 20:07:00,
2013-03-24 15:12:00,33.1,19.0,22.14,SE,135,21.0,21.0,56,0.00,,,0.00,meteohub,2013-03-24 20:12:00,
2013-03-24 15:17:00,33.6,19.6,22.14,SSE,158,11.0,21.0,56,0.00,,,0.00,meteohub,2013-03-24 20:17:00,
2013-03-24 15:22:00,33.4,18.5,22.14,SE,135,15.0,21.0,54,0.00,,,0.00,meteohub,2013-03-24 20:22:00,
2013-03-24 15:27:00,33.3,18.5,22.14,SE,135,24.0,24.0,54,0.00,,,0.00,meteohub,2013-03-24 20:27:00,
2013-03-24 15:32:00,33.1,18.7,22.14,SE,135,8.0,24.0,55,0.00,,,0.00,meteohub,2013-03-24 20:32:00,
2013-03-24 15:37:00,33.1,18.7,22.14,SE,135,16.0,24.0,55,0.00,,,0.00,meteohub,2013-03-24 20:37:00,
2013-03-24 15:42:00,32.9,18.9,22.13,SE,135,16.0,24.0,56,0.00,,,0.00,meteohub,2013-03-24 20:42:00,
2013-03-24 15:47:00,32.5,18.1,22.14,SE,135,9.0,21.0,55,0.00,,,0.00,meteohub,2013-03-24 20:47:00,
2013-03-24 15:52:00,32.5,18.5,22.14,East,90,17.0,23.0,56,0.00,,,0.00,meteohub,2013-03-24 20:52:00,
2013-03-24 15:57:00,32.5,18.5,22.14,East,90,13.0,23.0,56,0.00,,,0.00,meteohub,2013-03-24 20:57:00,
2013-03-24 16:02:00,32.4,18.5,22.14,SE,135,17.0,23.0,56,0.00,,,0.00,meteohub,2013-03-24 21:02:00,
2013-03-24 16:07:00,32.5,18.5,22.14,SE,135,13.0,21.0,56,0.00,,,0.00,meteohub,2013-03-24 21:07:00,
2013-03-24 16:12:00,32.5,18.5,22.14,East,90,15.0,21.0,56,0.00,,,0.00,meteohub,2013-03-24 21:12:00,
2013-03-24 16:17:00,32.7,18.7,22.15,SE,135,16.0,21.0,56,0.00,,,0.00,meteohub,2013-03-24 21:17:00,
2013-03-24 16:22:00,32.7,18.7,22.15,SE,135,15.0,21.0,56,0.00,,,0.00,meteohub,2013-03-24 21:22:00,
2013-03-24 16:27:00,32.9,18.9,22.14,SE,135,13.0,16.0,56,0.00,,,0.00,meteohub,2013-03-24 21:27:00,
2013-03-24 16:32:00,32.9,18.9,22.15,ESE,113,12.0,16.0,56,0.00,,,0.00,meteohub,2013-03-24 21:32:00,
2013-03-24 16:37:00,32.9,18.9,22.15,ESE,113,15.0,15.0,56,0.00,,,0.00,meteohub,2013-03-24 21:37:00,
2013-03-24 16:42:00,32.9,18.9,22.15,East,90,16.0,16.0,56,0.00,,,0.00,meteohub,2013-03-24 21:42:00,
2013-03-24 16:47:00,32.9,18.9,22.16,SE,135,12.0,16.0,56,0.00,,,0.00,meteohub,2013-03-24 21:47:00,
2013-03-24 16:52:00,33.1,19.0,22.16,SE,135,9.0,17.0,56,0.00,,,0.00,meteohub,2013-03-24 21:52:00,
2013-03-24 16:57:00,33.3,19.2,22.16,SE,135,14.0,17.0,56,0.00,,,0.00,meteohub,2013-03-24 21:57:00,
2013-03-24 17:02:00,33.1,18.7,22.16,ESE,113,11.0,17.0,55,0.00,,,0.00,meteohub,2013-03-24 22:02:00,
2013-03-24 17:07:00,33.1,18.7,22.16,SE,135,15.0,15.0,55,0.00,,,0.00,meteohub,2013-03-24 22:07:00,
2013-03-24 17:12:00,33.1,18.3,22.16,SE,135,15.0,17.0,54,0.00,,,0.00,meteohub,2013-03-24 22:12:00,
2013-03-24 17:17:00,33.1,18.3,22.16,SE,135,15.0,18.0,54,0.00,,,0.00,meteohub,2013-03-24 22:17:00,
2013-03-24 17:22:00,32.9,18.1,22.16,SE,135,17.0,18.0,54,0.00,,,0.00,meteohub,2013-03-24 22:22:00,
2013-03-24 17:27:00,33.1,18.3,22.16,SE,135,8.0,18.0,54,0.00,,,0.00,meteohub,2013-03-24 22:27:00,
2013-03-24 17:32:00,32.9,18.1,22.16,ESE,113,14.0,17.0,54,0.00,,,0.00,meteohub,2013-03-24 22:32:00,
2013-03-24 17:37:00,33.1,18.3,22.16,SE,135,10.0,22.0,54,0.00,,,0.00,meteohub,2013-03-24 22:37:00,
2013-03-24 17:42:00,33.1,17.8,22.15,East,90,15.0,22.0,53,0.00,,,0.00,meteohub,2013-03-24 22:42:00,
2013-03-24 17:47:00,33.1,17.8,22.15,East,90,19.0,19.0,53,0.00,,,0.00,meteohub,2013-03-24 22:47:00,
2013-03-24 17:52:00,33.1,17.4,22.15,SE,135,13.0,19.0,52,0.00,,,0.00,meteohub,2013-03-24 22:52:00,
2013-03-24 17:57:00,33.1,17.4,22.15,SE,135,13.0,19.0,52,0.00,,,0.00,meteohub,2013-03-24 22:57:00,
2013-03-24 18:02:00,33.1,17.4,22.15,SE,135,16.0,19.0,52,0.00,,,0.00,meteohub,2013-03-24 23:02:00,
2013-03-24 18:07:00,33.1,17.4,22.15,SE,135,17.0,20.0,52,0.00,,,0.00,meteohub,2013-03-24 23:07:00,
2013-03-24 18:12:00,33.1,16.9,22.15,ENE,68,15.0,20.0,51,0.00,,,0.00,meteohub,2013-03-24 23:12:00,
2013-03-24 18:17:00,33.1,16.9,22.15,SE,135,8.0,20.0,51,0.00,,,0.00,meteohub,2013-03-24 23:17:00,
2013-03-24 18:22:00,32.9,16.7,22.15,SE,135,19.0,21.0,51,0.00,,,0.00,meteohub,2013-03-24 23:22:00,
2013-03-24 18:27:00,32.9,16.7,22.14,SSE,158,17.0,21.0,51,0.00,,,0.00,meteohub,2013-03-24 23:27:00,
2013-03-24 18:32:00,32.9,16.7,22.15,East,90,12.0,19.0,51,0.00,,,0.00,meteohub,2013-03-24 23:32:00,
2013-03-24 18:37:00,32.9,16.7,22.14,SE,135,11.0,19.0,51,0.00,,,0.00,meteohub,2013-03-24 23:37:00,
2013-03-24 18:42:00,32.9,16.7,22.14,SE,135,11.0,19.0,51,0.00,,,0.00,meteohub,2013-03-24 23:42:00,
2013-03-24 18:47:00,32.7,16.5,22.14,SE,135,12.0,14.0,51,0.00,,,0.00,meteohub,2013-03-24 23:47:00,
2013-03-24 18:52:00,32.7,16.5,22.14,SE,135,5.0,15.0,51,0.00,,,0.00,meteohub,2013-03-24 23:52:00,
2013-03-24 18:57:00,32.7,16.5,22.14,SE,135,11.0,15.0,51,0.00,,,0.00,meteohub,2013-03-24 23:57:00,
2013-03-24 19:02:00,32.7,16.5,22.14,SE,135,8.0,15.0,51,0.00,,,0.00,meteohub,2013-03-25 00:02:00,
2013-03-24 19:07:00,32.5,16.9,22.14,SE,135,8.0,11.0,52,0.00,,,0.00,meteohub,2013-03-25 00:07:00,
2013-03-24 19:12:00,32.5,16.9,22.14,SE,135,8.0,11.0,52,0.00,,,0.00,meteohub,2013-03-25 00:12:00,
2013-03-24 19:17:00,32.4,16.7,22.14,SE,135,7.0,8.0,52,0.00,,,0.00,meteohub,2013-03-25 00:17:00,
2013-03-24 19:23:00,32.4,16.7,22.13,SE,135,8.0,8.0,52,0.00,,,0.00,meteohub,2013-03-25 00:23:00,
2013-03-24 19:28:00,32.2,16.5,22.13,SE,135,5.0,9.0,52,0.00,,,0.00,meteohub,2013-03-25 00:28:00,
2013-03-24 19:33:00,32.2,17.1,22.13,SE,135,3.0,9.0,53,0.00,,,0.00,meteohub,2013-03-25 00:33:00,
2013-03-24 19:38:00,32.0,16.9,22.13,SE,135,4.0,9.0,53,0.00,,,0.00,meteohub,2013-03-25 00:38:00,
2013-03-24 19:43:00,32.0,16.9,22.13,South,180,4.0,9.0,53,0.00,,,0.00,meteohub,2013-03-25 00:43:00,
2013-03-24 19:48:00,32.0,16.9,22.13,East,90,6.0,9.0,53,0.00,,,0.00,meteohub,2013-03-25 00:48:00,
2013-03-24 19:53:00,32.0,16.9,22.12,ESE,113,5.0,8.0,53,0.00,,,0.00,meteohub,2013-03-25 00:53:00,
2013-03-24 19:58:00,32.0,16.9,22.12,East,90,4.0,8.0,53,0.00,,,0.00,meteohub,2013-03-25 00:58:00,
2013-03-24 20:03:00,32.0,16.9,22.12,East,90,6.0,8.0,53,0.00,,,0.00,meteohub,2013-03-25 01:03:00,
2013-03-24 20:08:00,32.0,16.9,22.12,East,90,2.0,6.0,53,0.00,,,0.00,meteohub,2013-03-25 01:08:00,
2013-03-24 20:13:00,31.8,17.1,22.12,East,90,4.0,6.0,54,0.00,,,0.00,meteohub,2013-03-25 01:13:00,
2013-03-24 20:18:00,31.8,17.1,22.12,SE,135,3.0,6.0,54,0.00,,,0.00,meteohub,2013-03-25 01:18:00,
2013-03-24 20:23:00,31.8,17.1,22.12,East,90,4.0,4.0,54,0.00,,,0.00,meteohub,2013-03-25 01:23:00,
2013-03-24 20:28:00,31.8,17.4,22.12,ESE,113,4.0,4.0,55,0.00,,,0.00,meteohub,2013-03-25 01:28:00,
2013-03-24 20:33:00,31.8,17.4,22.12,East,90,4.0,4.0,55,0.00,,,0.00,meteohub,2013-03-25 01:33:00,
2013-03-24 20:38:00,31.8,17.4,22.12,East,90,4.0,4.0,55,0.00,,,0.00,meteohub,2013-03-25 01:38:00,
2013-03-24 20:43:00,31.6,17.2,22.12,East,90,3.0,4.0,55,0.00,,,0.00,meteohub,2013-03-25 01:43:00,
2013-03-24 20:48:00,31.6,17.2,22.12,East,90,5.0,5.0,55,0.00,,,0.00,meteohub,2013-03-25 01:48:00,
2013-03-24 20:53:00,31.8,17.4,22.12,East,90,4.0,5.0,55,0.00,,,0.00,meteohub,2013-03-25 01:53:00,
2013-03-24 20:58:00,31.8,17.4,22.12,SE,135,7.0,7.0,55,0.00,,,0.00,meteohub,2013-03-25 01:58:00,
2013-03-24 21:03:00,31.8,17.4,22.12,East,90,5.0,7.0,55,0.00,,,0.00,meteohub,2013-03-25 02:03:00,
2013-03-24 21:08:00,31.8,17.4,22.11,SE,135,7.0,7.0,55,0.00,,,0.00,meteohub,2013-03-25 02:08:00,
2013-03-24 21:13:00,31.8,17.4,22.11,SE,135,6.0,8.0,55,0.00,,,0.00,meteohub,2013-03-25 02:13:00,
2013-03-24 21:18:00,32.0,17.2,22.11,SE,135,10.0,10.0,54,0.00,,,0.00,meteohub,2013-03-25 02:18:00,
2013-03-24 21:23:00,32.0,17.2,22.11,ESE,113,15.0,15.0,54,0.00,,,0.00,meteohub,2013-03-25 02:23:00,
2013-03-24 21:28:00,32.0,17.2,22.11,SE,135,9.0,15.0,54,0.00,,,0.00,meteohub,2013-03-25 02:28:00,
2013-03-24 21:33:00,32.0,16.9,22.11,SE,135,15.0,15.0,53,0.00,,,0.00,meteohub,2013-03-25 02:33:00,
2013-03-24 21:38:00,32.0,16.3,22.11,SE,135,15.0,17.0,52,0.00,,,0.00,meteohub,2013-03-25 02:38:00,
2013-03-24 21:43:00,32.0,16.3,22.11,East,90,10.0,18.0,52,0.00,,,0.00,meteohub,2013-03-25 02:43:00,
2013-03-24 21:48:00,32.0,16.3,22.11,SE,135,15.0,18.0,52,0.00,,,0.00,meteohub,2013-03-25 02:48:00,
2013-03-24 21:53:00,32.0,16.3,22.11,East,90,8.0,18.0,52,0.00,,,0.00,meteohub,2013-03-25 02:53:00,
2013-03-24 21:58:00,32.0,16.3,22.11,SE,135,15.0,17.0,52,0.00,,,0.00,meteohub,2013-03-25 02:58:00,
2013-03-24 22:03:00,32.0,16.9,22.12,East,90,11.0,15.0,53,0.00,,,0.00,meteohub,2013-03-25 03:03:00,
2013-03-24 22:08:00,31.8,17.1,22.12,SE,135,9.0,15.0,54,0.00,,,0.00,meteohub,2013-03-25 03:08:00,
2013-03-24 22:13:00,31.8,17.1,22.11,SSE,158,9.0,15.0,54,0.00,,,0.00,meteohub,2013-03-25 03:13:00,
2013-03-24 22:18:00,31.6,16.9,22.11,East,90,9.0,12.0,54,0.00,,,0.00,meteohub,2013-03-25 03:18:00,
2013-03-24 22:23:00,31.6,17.2,22.12,SE,135,8.0,11.0,55,0.00,,,0.00,meteohub,2013-03-25 03:23:00,
2013-03-24 22:28:00,31.6,17.2,22.11,East,90,8.0,11.0,55,0.00,,,0.00,meteohub,2013-03-25 03:28:00,
2013-03-24 22:33:00,31.6,17.2,22.12,East,90,11.0,11.0,55,0.00,,,0.00,meteohub,2013-03-25 03:33:00,
2013-03-24 22:38:00,31.6,16.9,22.11,SE,135,9.0,11.0,54,0.00,,,0.00,meteohub,2013-03-25 03:38:00,
2013-03-24 22:43:00,31.5,16.7,22.11,SE,135,10.0,15.0,54,0.00,,,0.00,meteohub,2013-03-25 03:43:00,
2013-03-24 22:48:00,31.5,16.7,22.11,East,90,10.0,15.0,54,0.00,,,0.00,meteohub,2013-03-25 03:48:00,
2013-03-24 22:53:00,31.5,16.7,22.11,SE,135,11.0,15.0,54,0.00,,,0.00,meteohub,2013-03-25 03:53:00,
2013-03-24 22:58:00,31.3,16.2,22.11,SE,135,17.0,17.0,53,0.00,,,0.00,meteohub,2013-03-25 03:58:00,
2013-03-24 23:00:00,31.3,16.2,22.11,SE,135,15.0,15.0,53,0.00,,,0.00,meteohub,2013-03-25 04:00:00,
2013-03-24 23:01:00,31.3,16.2,22.11,SE,135,15.0,16.0,53,0.00,,,0.00,meteohub,2013-03-25 04:01:00,
2013-03-24 23:02:00,31.3,16.2,22.11,SE,135,15.0,16.0,53,0.00,,,0.00,meteohub,2013-03-25 04:02:00,
2013-03-24 23:07:00,31.3,16.2,22.11,SE,135,15.0,17.0,53,0.00,,,0.00,meteohub,2013-03-25 04:07:00,
2013-03-24 23:12:00,30.9,15.8,22.10,SE,135,18.0,18.0,53,0.00,,,0.00,meteohub,2013-03-25 04:12:00,
2013-03-24 23:17:00,30.9,15.8,22.10,SE,135,17.0,18.0,53,0.00,,,0.00,meteohub,2013-03-25 04:17:00,
2013-03-24 23:22:00,30.7,15.6,22.11,SE,135,14.0,18.0,53,0.00,,,0.00,meteohub,2013-03-25 04:22:00,
2013-03-24 23:27:00,30.6,16.0,22.10,SE,135,17.0,18.0,54,0.00,,,0.00,meteohub,2013-03-25 04:27:00,
2013-03-24 23:32:00,30.4,15.8,22.11,SE,135,15.0,17.0,54,0.00,,,0.00,meteohub,2013-03-25 04:32:00,
2013-03-24 23:37:00,30.4,15.8,22.11,East,90,17.0,17.0,54,0.00,,,0.00,meteohub,2013-03-25 04:37:00,
2013-03-24 23:42:00,30.2,15.6,22.11,SE,135,8.0,17.0,54,0.00,,,0.00,meteohub,2013-03-25 04:42:00,
2013-03-24 23:47:00,30.0,16.2,22.11,SSE,158,6.0,17.0,56,0.00,,,0.00,meteohub,2013-03-25 04:47:00,
2013-03-24 23:52:00,29.7,15.8,22.11,SE,135,13.0,17.0,56,0.00,,,0.00,meteohub,2013-03-25 04:52:00,
2013-03-24 23:57:00,29.5,15.8,22.11,SE,135,16.0,16.0,56,0.00,,,0.00,meteohub,2013-03-25 04:57:00,